createdAt,value
2023-01-13T00:01:15.265Z,10.79
2023-01-13T00:03:42.566Z,10.76
2023-01-13T00:06:13.518Z,10.83
2023-01-13T00:08:40.381Z,10.81
2023-01-13T00:11:07.325Z,10.73
2023-01-13T00:13:38.509Z,10.80
2023-01-13T00:16:10.089Z,10.85
2023-01-13T00:18:39.712Z,10.81
2023-01-13T00:21:11.529Z,10.74
2023-01-13T00:23:39.590Z,10.69
2023-01-13T00:26:09.069Z,10.66
2023-01-13T00:28:35.955Z,10.61
2023-01-13T00:31:11.570Z,10.66
2023-01-13T00:33:39.104Z,10.71
2023-01-13T00:36:07.905Z,10.73
2023-01-13T00:38:36.217Z,10.66
2023-01-13T00:41:04.474Z,10.74
2023-01-13T00:43:32.734Z,10.79
2023-01-13T00:46:00.102Z,10.80
2023-01-13T00:48:27.748Z,10.80
2023-01-13T00:50:59.464Z,10.85
2023-01-13T00:53:27.251Z,10.73
2023-01-13T00:56:01.996Z,10.70
2023-01-13T00:58:31.162Z,10.65
2023-01-13T01:01:09.129Z,10.72
2023-01-13T01:03:36.682Z,10.67
2023-01-13T01:06:09.115Z,10.66
2023-01-13T01:08:36.037Z,10.62
2023-01-13T01:11:04.637Z,10.61
2023-01-13T01:13:31.951Z,10.50
2023-01-13T01:15:59.142Z,10.54
2023-01-13T01:18:26.188Z,10.44
2023-01-13T01:20:52.978Z,10.38
2023-01-13T01:23:19.716Z,10.40
2023-01-13T01:25:46.450Z,10.50
2023-01-13T01:28:13.454Z,10.53
2023-01-13T01:30:40.170Z,10.54
2023-01-13T01:33:06.950Z,10.57
2023-01-13T01:35:33.670Z,10.50
2023-01-13T01:38:00.835Z,10.46
2023-01-13T01:40:27.799Z,10.42
2023-01-13T01:43:13.284Z,10.39
2023-01-13T01:45:40.129Z,10.50
2023-01-13T01:48:08.500Z,10.58
2023-01-13T01:50:36.226Z,10.48
2023-01-13T01:53:12.836Z,10.56
2023-01-13T01:55:42.372Z,10.60
2023-01-13T01:58:15.743Z,10.62
2023-01-13T02:00:42.963Z,10.47
2023-01-13T02:03:10.862Z,10.47
2023-01-13T02:05:39.079Z,10.52
2023-01-13T02:08:07.552Z,10.55
2023-01-13T02:10:36.711Z,10.58
2023-01-13T02:13:09.906Z,10.53
2023-01-13T02:15:46.273Z,10.56
2023-01-13T02:18:39.332Z,10.46
2023-01-13T02:21:48.601Z,10.63
2023-01-13T02:24:54.659Z,10.43
2023-01-13T02:27:49.266Z,10.54
2023-01-13T02:30:49.559Z,10.51
2023-01-13T02:33:45.749Z,10.54
2023-01-13T02:36:33.966Z,10.64
2023-01-13T02:39:13.005Z,10.64
2023-01-13T02:42:05.522Z,10.55
2023-01-13T02:44:43.867Z,10.37
2023-01-13T02:47:18.625Z,10.35
2023-01-13T02:49:50.955Z,10.43
2023-01-13T02:52:26.058Z,10.32
2023-01-13T02:55:00.634Z,10.34
2023-01-13T02:57:32.545Z,10.45
2023-01-13T02:59:59.336Z,10.38
2023-01-13T03:02:26.229Z,10.25
2023-01-13T03:04:58.334Z,10.25
2023-01-13T03:07:56.041Z,10.45
2023-01-13T03:10:34.411Z,10.43
2023-01-13T03:13:26.178Z,10.37
2023-01-13T03:16:00.074Z,10.39
2023-01-13T03:19:01.245Z,10.41
2023-01-13T03:21:59.297Z,10.36
2023-01-13T03:24:54.579Z,10.46
2023-01-13T03:27:50.533Z,10.51
2023-01-13T03:30:28.755Z,10.52
2023-01-13T03:33:12.924Z,10.60
2023-01-13T03:35:46.199Z,10.43
2023-01-13T03:38:18.681Z,10.46
2023-01-13T03:40:51.145Z,10.61
2023-01-13T03:43:51.698Z,10.45
2023-01-13T03:46:42.332Z,10.65
2023-01-13T03:49:12.143Z,10.51
2023-01-13T03:51:42.815Z,10.67
2023-01-13T03:54:13.001Z,10.49
2023-01-13T03:56:47.807Z,10.55
2023-01-13T03:59:19.209Z,10.53
2023-01-13T04:01:57.145Z,10.54
2023-01-13T04:04:31.329Z,10.47
2023-01-13T04:07:06.838Z,10.52
2023-01-13T04:09:41.116Z,10.47
2023-01-13T04:12:28.349Z,10.47
2023-01-13T04:14:56.043Z,10.47
2023-01-13T04:17:24.559Z,10.39
2023-01-13T04:19:51.172Z,10.54
2023-01-13T04:22:17.784Z,10.56
2023-01-13T04:24:44.434Z,10.49
2023-01-13T04:27:11.056Z,10.49
2023-01-13T04:29:37.662Z,10.55
2023-01-13T04:32:04.399Z,10.55
2023-01-13T04:34:31.161Z,10.57
2023-01-13T04:36:57.779Z,10.51
2023-01-13T04:39:24.393Z,10.60
2023-01-13T04:42:01.262Z,10.49
2023-01-13T04:44:30.437Z,10.66
2023-01-13T04:46:58.809Z,10.57
2023-01-13T04:49:26.550Z,10.61
2023-01-13T04:51:53.189Z,10.66
2023-01-13T04:54:20.457Z,10.52
2023-01-13T04:56:47.079Z,10.65
2023-01-13T04:59:14.480Z,10.66
2023-01-13T05:01:41.297Z,10.63
2023-01-13T05:04:08.503Z,10.66
2023-01-13T05:06:35.283Z,10.72
2023-01-13T05:09:02.025Z,10.69
2023-01-13T05:11:47.235Z,10.69
2023-01-13T05:14:32.429Z,10.69
2023-01-13T05:17:02.025Z,10.69
2023-01-13T05:19:31.089Z,10.66
2023-01-13T05:22:17.102Z,10.56
2023-01-13T05:25:02.304Z,10.77
2023-01-13T05:27:31.435Z,10.63
2023-01-13T05:29:58.318Z,10.78
2023-01-13T05:32:25.640Z,10.88
2023-01-13T05:34:52.304Z,10.73
2023-01-13T05:37:18.937Z,10.80
2023-01-13T05:40:03.961Z,10.68
2023-01-13T05:42:49.249Z,10.74
2023-01-13T05:45:16.092Z,10.76
2023-01-13T05:47:42.819Z,10.71
2023-01-13T05:50:10.367Z,10.70
2023-01-13T05:52:37.084Z,10.67
2023-01-13T05:55:04.198Z,10.69
2023-01-13T05:57:31.083Z,10.75
2023-01-13T05:59:57.717Z,10.80
2023-01-13T06:02:24.782Z,10.79
2023-01-13T06:04:51.579Z,10.78
2023-01-13T06:07:18.152Z,10.77
2023-01-13T06:09:44.730Z,10.77
2023-01-13T06:12:12.532Z,10.82
2023-01-13T06:14:41.994Z,10.80
2023-01-13T06:17:13.799Z,10.78
2023-01-13T06:19:41.189Z,10.77
2023-01-13T06:22:15.426Z,10.72
2023-01-13T06:24:43.241Z,10.76
2023-01-13T06:27:10.136Z,10.70
2023-01-13T06:29:36.791Z,10.67
2023-01-13T06:32:07.248Z,10.64
2023-01-13T06:34:35.517Z,10.60
2023-01-13T06:37:03.764Z,10.65
2023-01-13T06:39:31.721Z,10.56
2023-01-13T06:42:17.822Z,10.48
2023-01-13T06:44:45.395Z,10.44
2023-01-13T06:47:12.002Z,10.29
2023-01-13T06:49:38.640Z,10.16
2023-01-13T06:52:05.377Z,10.08
2023-01-13T06:54:32.127Z,10.17
2023-01-13T06:56:58.723Z,10.18
2023-01-13T06:59:25.779Z,10.24
2023-01-13T07:01:52.752Z,10.26
2023-01-13T07:04:19.544Z,10.26
2023-01-13T07:06:46.192Z,10.27
2023-01-13T07:09:12.942Z,10.20
2023-01-13T07:11:39.569Z,10.03
2023-01-13T07:14:24.772Z,10.05
2023-01-13T07:16:52.935Z,9.97
2023-01-13T07:19:23.741Z,9.95
2023-01-13T07:21:53.483Z,9.89
2023-01-13T07:24:20.517Z,9.99
2023-01-13T07:26:47.181Z,10.00
2023-01-13T07:29:14.039Z,9.97
2023-01-13T07:31:40.775Z,10.04
2023-01-13T07:34:07.610Z,9.85
2023-01-13T07:36:34.584Z,9.89
2023-01-13T07:39:01.211Z,9.83
2023-01-13T07:41:46.569Z,9.96
2023-01-13T07:44:13.441Z,9.87
2023-01-13T07:46:40.294Z,9.80
2023-01-13T07:49:08.229Z,9.93
2023-01-13T07:51:39.755Z,9.90
2023-01-13T07:54:06.829Z,9.82
2023-01-13T07:56:33.623Z,9.81
2023-01-13T07:59:00.888Z,9.73
2023-01-13T08:01:28.204Z,9.71
2023-01-13T08:03:59.123Z,9.70
2023-01-13T08:06:26.708Z,9.67
2023-01-13T08:08:54.046Z,9.61
2023-01-13T08:11:23.415Z,9.68
2023-01-13T08:13:50.511Z,9.63
2023-01-13T08:16:17.616Z,9.64
2023-01-13T08:18:44.334Z,9.63
2023-01-13T08:21:14.903Z,9.58
2023-01-13T08:23:43.189Z,9.52
2023-01-13T08:26:13.424Z,9.53
2023-01-13T08:28:40.635Z,9.46
2023-01-13T08:31:12.911Z,9.52
2023-01-13T08:33:40.328Z,9.54
2023-01-13T08:36:09.481Z,9.55
2023-01-13T08:38:37.113Z,9.68
2023-01-13T08:41:15.965Z,9.76
2023-01-13T08:43:42.570Z,9.73
2023-01-13T08:46:09.453Z,9.79
2023-01-13T08:48:36.178Z,9.77
2023-01-13T08:51:06.424Z,9.80
2023-01-13T08:53:33.220Z,9.88
2023-01-13T08:55:59.877Z,9.79
2023-01-13T08:58:26.858Z,9.80
2023-01-13T09:00:53.655Z,9.78
2023-01-13T09:03:20.430Z,9.77
2023-01-13T09:05:47.043Z,9.80
2023-01-13T09:08:13.704Z,9.79
2023-01-13T09:10:40.615Z,9.77
2023-01-13T09:13:12.064Z,9.85
2023-01-13T09:15:40.659Z,10.11
2023-01-13T09:18:07.330Z,10.09
2023-01-13T09:20:34.006Z,9.97
2023-01-13T09:23:00.934Z,9.92
2023-01-13T09:25:27.682Z,9.94
2023-01-13T09:27:54.279Z,10.06
2023-01-13T09:30:21.088Z,10.21
2023-01-13T09:32:47.797Z,10.23
2023-01-13T09:35:14.518Z,10.27
2023-01-13T09:37:41.530Z,10.30
2023-01-13T09:40:22.567Z,10.40
2023-01-13T09:43:16.213Z,10.38
2023-01-13T09:45:47.900Z,10.36
2023-01-13T09:48:32.399Z,10.52
2023-01-13T09:51:09.568Z,10.54
2023-01-13T09:53:48.031Z,10.46
2023-01-13T09:56:14.662Z,10.47
2023-01-13T09:58:41.994Z,10.46
2023-01-13T10:01:20.181Z,10.51
2023-01-13T10:03:49.266Z,10.46
2023-01-13T10:06:31.766Z,10.49
2023-01-13T10:08:58.349Z,10.44
2023-01-13T10:11:51.073Z,10.48
2023-01-13T10:14:23.927Z,10.47
2023-01-13T10:16:52.818Z,10.52
2023-01-13T10:19:27.496Z,10.37
2023-01-13T10:22:21.590Z,10.41
2023-01-13T10:25:30.064Z,10.51
2023-01-13T10:28:04.244Z,10.60
2023-01-13T10:30:38.755Z,10.62
2023-01-13T10:33:18.957Z,10.67
2023-01-13T10:35:50.079Z,10.56
2023-01-13T10:38:20.819Z,10.53
2023-01-13T10:40:51.672Z,10.50
2023-01-13T10:43:18.541Z,10.55
2023-01-13T10:45:59.755Z,10.56
2023-01-13T10:49:03.227Z,10.51
2023-01-13T10:51:31.310Z,10.40
2023-01-13T10:54:12.973Z,10.50
2023-01-13T10:56:44.893Z,10.32
2023-01-13T10:59:22.849Z,10.36
2023-01-13T11:01:58.566Z,10.46
2023-01-13T11:04:40.455Z,10.67
2023-01-13T11:07:28.328Z,10.66
2023-01-13T11:10:16.157Z,10.68
2023-01-13T11:12:50.822Z,10.80
2023-01-13T11:15:22.665Z,10.81
2023-01-13T11:18:00.340Z,10.75
2023-01-13T11:20:33.708Z,10.96
2023-01-13T11:23:13.487Z,10.99
2023-01-13T11:25:44.952Z,11.01
2023-01-13T11:28:40.064Z,11.19
2023-01-13T11:31:25.037Z,11.25
2023-01-13T11:34:01.163Z,11.20
2023-01-13T11:36:47.631Z,11.33
2023-01-13T11:39:26.687Z,11.27
2023-01-13T11:42:24.047Z,11.06
2023-01-13T11:45:12.749Z,11.31
2023-01-13T11:47:39.479Z,11.46
2023-01-13T11:50:16.117Z,11.12
2023-01-13T11:53:04.154Z,11.22
2023-01-13T11:56:08.256Z,11.53
2023-01-13T11:58:50.927Z,11.38
2023-01-13T12:01:46.446Z,11.30
2023-01-13T12:04:40.821Z,11.13
2023-01-13T12:07:38.531Z,11.14
2023-01-13T12:10:25.972Z,11.06
2023-01-13T12:13:19.001Z,11.10
2023-01-13T12:15:54.409Z,11.14
2023-01-13T12:18:42.234Z,11.12
2023-01-13T12:21:21.336Z,10.97
2023-01-13T12:24:06.023Z,10.93
2023-01-13T12:26:39.714Z,10.95
2023-01-13T12:29:14.166Z,10.74
2023-01-13T12:31:43.056Z,10.72
2023-01-13T12:34:48.297Z,10.87
2023-01-13T12:37:32.607Z,10.90
2023-01-13T12:40:21.351Z,10.92
2023-01-13T12:43:17.718Z,10.84
2023-01-13T12:45:44.457Z,10.64
2023-01-13T12:49:02.227Z,10.62
2023-01-13T12:51:37.576Z,10.51
2023-01-13T12:54:42.409Z,10.63
2023-01-13T12:57:29.555Z,10.70
2023-01-13T12:59:59.246Z,10.64
2023-01-13T13:02:30.616Z,10.62
2023-01-13T13:05:13.901Z,10.46
2023-01-13T13:07:44.843Z,10.58
2023-01-13T13:10:16.444Z,10.65
2023-01-13T13:13:01.406Z,10.46
2023-01-13T13:15:35.958Z,10.51
2023-01-13T13:18:24.282Z,10.30
2023-01-13T13:21:11.288Z,10.36
2023-01-13T13:23:48.507Z,10.45
2023-01-13T13:26:26.658Z,10.30
2023-01-13T13:29:05.599Z,10.12
2023-01-13T13:31:47.245Z,10.15
2023-01-13T13:34:43.190Z,10.27
2023-01-13T13:38:03.687Z,10.24
2023-01-13T13:41:01.352Z,10.37
2023-01-13T13:43:50.858Z,10.35
2023-01-13T13:46:47.429Z,10.10
2023-01-13T13:49:22.403Z,10.03
2023-01-13T13:52:00.239Z,10.10
2023-01-13T13:54:27.530Z,10.03
2023-01-13T13:56:54.272Z,10.21
2023-01-13T13:59:26.966Z,10.26
2023-01-13T14:02:01.543Z,10.19
2023-01-13T14:04:31.465Z,10.09
2023-01-13T14:07:06.754Z,10.24
2023-01-13T14:09:46.531Z,10.20
2023-01-13T14:12:21.980Z,10.03
2023-01-13T14:14:49.761Z,10.06
2023-01-13T14:17:28.472Z,10.08
2023-01-13T14:20:02.567Z,9.89
2023-01-13T14:22:30.664Z,9.89
2023-01-13T14:24:58.071Z,9.97
2023-01-13T14:27:27.618Z,9.97
2023-01-13T14:29:56.104Z,9.97
2023-01-13T14:32:29.793Z,9.87
2023-01-13T14:34:56.646Z,9.97
2023-01-13T14:37:32.573Z,10.04
2023-01-13T14:39:59.281Z,9.87
2023-01-13T14:42:28.149Z,9.83
2023-01-13T14:44:56.246Z,9.95
2023-01-13T14:47:28.737Z,9.83
2023-01-13T14:50:02.292Z,9.89
2023-01-13T14:52:37.194Z,9.93
2023-01-13T14:55:08.244Z,9.73
2023-01-13T14:57:36.110Z,9.63
2023-01-13T15:00:14.934Z,9.61
2023-01-13T15:02:49.199Z,9.73
2023-01-13T15:05:18.816Z,9.71
2023-01-13T15:08:22.349Z,9.72
2023-01-13T15:11:19.268Z,9.66
2023-01-13T15:13:55.620Z,9.79
2023-01-13T15:16:25.143Z,9.84
2023-01-13T15:18:53.095Z,9.79
2023-01-13T15:21:19.936Z,9.81
2023-01-13T15:23:47.323Z,9.85
2023-01-13T15:26:19.897Z,9.93
2023-01-13T15:28:47.623Z,9.89
2023-01-13T15:31:14.466Z,9.85
2023-01-13T15:33:41.709Z,10.00
2023-01-13T15:36:19.436Z,10.00
2023-01-13T15:38:46.039Z,9.98
2023-01-13T15:41:13.889Z,9.93
2023-01-13T15:43:58.912Z,9.96
2023-01-13T15:46:40.714Z,9.98
2023-01-13T15:49:14.061Z,9.94
2023-01-13T15:51:40.672Z,9.95
2023-01-13T15:54:08.602Z,9.92
2023-01-13T15:56:37.405Z,9.95
2023-01-13T15:59:06.276Z,9.96
2023-01-13T16:01:32.894Z,9.94
2023-01-13T16:03:59.505Z,9.87
2023-01-13T16:06:34.459Z,9.79
2023-01-13T16:09:02.964Z,9.89
2023-01-13T16:11:30.834Z,9.93
2023-01-13T16:13:57.707Z,9.85
2023-01-13T16:16:26.711Z,9.78
2023-01-13T16:18:54.165Z,9.86
2023-01-13T16:21:21.635Z,9.95
2023-01-13T16:23:49.992Z,9.92
2023-01-13T16:26:25.837Z,9.88
2023-01-13T16:28:54.562Z,9.96
2023-01-13T16:31:32.414Z,9.80
2023-01-13T16:34:01.299Z,9.78
2023-01-13T16:36:30.278Z,9.91
2023-01-13T16:38:57.082Z,9.85
2023-01-13T16:41:24.943Z,9.82
2023-01-13T16:43:52.548Z,9.77
2023-01-13T16:46:27.822Z,9.90
2023-01-13T16:48:57.271Z,9.79
2023-01-13T16:51:24.768Z,9.73
2023-01-13T16:53:52.069Z,9.75
2023-01-13T16:56:33.561Z,9.76
2023-01-13T16:59:10.821Z,9.95
2023-01-13T17:01:40.007Z,9.94
2023-01-13T17:04:07.337Z,9.99
2023-01-13T17:06:40.993Z,9.92
2023-01-13T17:09:15.737Z,9.89
2023-01-13T17:11:42.814Z,9.78
2023-01-13T17:14:19.306Z,9.78
2023-01-13T17:16:46.905Z,9.74
2023-01-13T17:19:13.989Z,9.77
2023-01-13T17:21:42.312Z,9.74
2023-01-13T17:24:10.602Z,9.70
2023-01-13T17:26:42.057Z,9.62
2023-01-13T17:29:13.974Z,9.66
2023-01-13T17:31:40.934Z,9.70
2023-01-13T17:34:08.060Z,9.63
2023-01-13T17:36:34.701Z,9.60
2023-01-13T17:39:01.679Z,9.62
2023-01-13T17:41:28.534Z,9.44
2023-01-13T17:43:55.437Z,9.42
2023-01-13T17:46:23.136Z,9.49
2023-01-13T17:48:52.571Z,9.70
2023-01-13T17:51:22.441Z,9.76
2023-01-13T17:53:49.420Z,9.74
2023-01-13T17:56:17.106Z,9.91
2023-01-13T17:58:46.859Z,9.75
2023-01-13T18:01:19.128Z,9.74
2023-01-13T18:03:46.706Z,9.59
2023-01-13T18:06:19.089Z,9.61
2023-01-13T18:08:46.985Z,9.65
2023-01-13T18:11:15.563Z,9.70
2023-01-13T18:13:54.917Z,9.40
2023-01-13T18:16:22.051Z,9.36
2023-01-13T18:18:51.573Z,9.69
2023-01-13T18:21:42.167Z,9.82
2023-01-13T18:24:32.532Z,9.64
2023-01-13T18:27:17.749Z,9.69
2023-01-13T18:29:49.144Z,9.73
2023-01-13T18:32:16.067Z,9.62
2023-01-13T18:34:43.117Z,9.62
2023-01-13T18:37:12.008Z,9.62
2023-01-13T18:39:38.879Z,9.48
2023-01-13T18:42:25.451Z,9.34
2023-01-13T18:44:53.150Z,9.28
2023-01-13T18:47:20.101Z,9.42
2023-01-13T18:49:47.060Z,9.38
2023-01-13T18:52:13.671Z,9.41
2023-01-13T18:54:40.512Z,9.40
2023-01-13T18:57:07.304Z,9.34
2023-01-13T18:59:34.626Z,9.32
2023-01-13T19:02:02.408Z,9.31
2023-01-13T19:04:29.506Z,9.32
2023-01-13T19:07:00.826Z,9.28
2023-01-13T19:09:29.213Z,9.43
2023-01-13T19:11:57.090Z,9.43
2023-01-13T19:14:34.221Z,9.46
2023-01-13T19:17:03.842Z,9.32
2023-01-13T19:19:31.454Z,9.29
2023-01-13T19:21:58.502Z,9.32
2023-01-13T19:24:28.304Z,9.19
2023-01-13T19:26:54.906Z,9.27
2023-01-13T19:29:22.101Z,9.34
2023-01-13T19:31:48.869Z,9.27
2023-01-13T19:34:15.979Z,9.34
2023-01-13T19:36:42.996Z,9.43
2023-01-13T19:39:10.234Z,9.36
2023-01-13T19:41:56.218Z,9.40
2023-01-13T19:44:41.795Z,9.47
2023-01-13T19:47:08.547Z,9.31
2023-01-13T19:49:35.551Z,9.22
2023-01-13T19:52:02.170Z,9.16
2023-01-13T19:54:28.921Z,9.28
2023-01-13T19:56:56.896Z,9.26
2023-01-13T19:59:29.026Z,9.22
2023-01-13T20:01:57.209Z,9.34
2023-01-13T20:04:33.593Z,9.25
2023-01-13T20:07:00.868Z,9.41
2023-01-13T20:09:27.560Z,9.39
2023-01-13T20:11:54.451Z,9.44
2023-01-13T20:14:21.417Z,9.47
2023-01-13T20:16:48.295Z,9.46
2023-01-13T20:19:15.409Z,9.40
2023-01-13T20:21:42.846Z,9.42
2023-01-13T20:24:17.041Z,9.35
2023-01-13T20:26:45.769Z,9.33
2023-01-13T20:29:13.311Z,9.31
2023-01-13T20:31:40.038Z,9.24
2023-01-13T20:34:06.705Z,9.17
2023-01-13T20:36:37.267Z,9.09
2023-01-13T20:39:06.350Z,9.17
2023-01-13T20:41:51.601Z,9.18
2023-01-13T20:44:18.259Z,9.33
2023-01-13T20:46:45.283Z,9.30
2023-01-13T20:49:13.363Z,9.21
2023-01-13T20:51:40.876Z,9.28
2023-01-13T20:54:09.156Z,9.32
2023-01-13T20:56:36.892Z,9.29
2023-01-13T20:59:04.093Z,9.16
2023-01-13T21:01:32.283Z,9.38
2023-01-13T21:04:00.443Z,9.15
2023-01-13T21:06:28.840Z,9.36
2023-01-13T21:08:55.916Z,9.21
2023-01-13T21:11:43.503Z,9.48
2023-01-13T21:14:40.666Z,9.50
2023-01-13T21:17:08.356Z,9.46
2023-01-13T21:19:34.924Z,9.41
2023-01-13T21:22:03.951Z,9.33
2023-01-13T21:24:30.829Z,9.31
2023-01-13T21:27:00.390Z,9.23
2023-01-13T21:29:27.042Z,9.22
2023-01-13T21:31:54.377Z,9.31
2023-01-13T21:34:21.310Z,9.15
2023-01-13T21:36:47.895Z,9.18
2023-01-13T21:39:15.923Z,9.15
2023-01-13T21:42:00.811Z,9.34
2023-01-13T21:44:46.367Z,9.25
2023-01-13T21:47:36.764Z,9.23
2023-01-13T21:50:06.996Z,9.26
2023-01-13T21:52:33.615Z,9.18
2023-01-13T21:55:18.791Z,9.22
2023-01-13T21:57:50.517Z,9.30
2023-01-13T22:00:19.205Z,9.19
2023-01-13T22:02:46.680Z,9.18
2023-01-13T22:05:17.498Z,9.28
2023-01-13T22:07:44.312Z,9.16
2023-01-13T22:10:14.638Z,9.08
2023-01-13T22:12:41.411Z,9.15
2023-01-13T22:15:10.891Z,9.15
2023-01-13T22:17:37.597Z,9.11
2023-01-13T22:20:04.979Z,9.18
2023-01-13T22:22:36.572Z,9.12
2023-01-13T22:25:08.907Z,9.36
2023-01-13T22:27:41.035Z,9.29
2023-01-13T22:30:15.856Z,9.13
2023-01-13T22:32:42.741Z,9.14
2023-01-13T22:35:13.931Z,9.43
2023-01-13T22:37:41.257Z,9.42
2023-01-13T22:40:10.872Z,9.31
2023-01-13T22:42:42.435Z,9.32
2023-01-13T22:45:13.573Z,9.19
2023-01-13T22:47:40.318Z,9.19
2023-01-13T22:50:08.160Z,9.15
2023-01-13T22:52:35.621Z,9.13
2023-01-13T22:55:02.291Z,9.12
2023-01-13T22:57:36.088Z,9.18
2023-01-13T23:00:07.685Z,9.19
2023-01-13T23:02:34.559Z,9.19
2023-01-13T23:05:01.840Z,9.22
2023-01-13T23:07:29.775Z,9.11
2023-01-13T23:09:56.369Z,9.11
2023-01-13T23:12:22.957Z,8.99
2023-01-13T23:14:49.682Z,8.98
2023-01-13T23:17:16.347Z,8.88
2023-01-13T23:19:43.028Z,8.83
2023-01-13T23:22:09.828Z,8.86
2023-01-13T23:24:36.482Z,8.86
2023-01-13T23:27:03.240Z,8.83
2023-01-13T23:29:29.874Z,8.79
2023-01-13T23:31:56.563Z,8.78
2023-01-13T23:34:23.199Z,8.95
2023-01-13T23:36:50.054Z,8.94
2023-01-13T23:39:16.709Z,8.99
2023-01-13T23:41:43.414Z,8.89
2023-01-13T23:44:09.984Z,8.72
2023-01-13T23:46:36.733Z,8.81
2023-01-13T23:49:03.617Z,8.86
2023-01-13T23:51:30.525Z,8.75
2023-01-13T23:53:58.433Z,8.75
2023-01-13T23:56:28.482Z,8.64
2023-01-13T23:58:55.896Z,8.61
